Time;durP1;ratioP1;P1;durP2;ratioP2;P2;SDS_P1;SDS_P2;PMS_P1;PMS_P2;Temp;Humidity;BMP_temperature;BMP_pressure;BME280_temperature;BME280_humidity;BME280_pressure;Samples;Min_cycle;Max_cycle;Signal;HPM_P1;HPM_P2
2023/09/18 00:01:05;;;;;;;72.47;65.53;;;16.70;99.90;;;;;;6207564;22;20016;-81
2023/09/18 00:03:33;;;;;;;70.88;64.25;;;16.70;99.90;;;;;;6218083;23;20013;-81
2023/09/18 00:06:01;;;;;;;70.75;63.83;;;16.60;99.90;;;;;;6206934;22;20073;-81
2023/09/18 00:08:28;;;;;;;72.80;65.60;;;16.70;99.90;;;;;;6210607;22;20032;-80
2023/09/18 00:10:56;;;;;;;71.90;65.05;;;16.60;99.90;;;;;;6155776;23;20352;-81
2023/09/18 00:13:24;;;;;;;71.60;64.70;;;16.60;99.90;;;;;;6172704;23;20029;-80
2023/09/18 00:15:56;;;;;;;68.88;62.38;;;16.60;99.90;;;;;;6165295;23;20442;-80
2023/09/18 00:18:23;;;;;;;71.47;64.60;;;16.70;99.90;;;;;;6150395;23;20108;-80
2023/09/18 00:20:51;;;;;;;70.03;63.13;;;16.70;99.90;;;;;;6156033;23;20032;-81
2023/09/18 00:23:19;;;;;;;67.00;60.67;;;16.60;99.90;;;;;;6158445;23;20021;-79
2023/09/18 00:25:46;;;;;;;69.88;62.97;;;16.60;99.90;;;;;;6160585;23;20039;-81
2023/09/18 00:28:14;;;;;;;72.05;64.95;;;16.50;99.90;;;;;;6160369;23;20465;-81
2023/09/18 00:30:48;;;;;;;73.28;66.15;;;16.40;99.90;;;;;;6150632;23;20101;-81
2023/09/18 00:33:19;;;;;;;72.80;65.43;;;16.50;99.90;;;;;;6149356;23;20037;-80
2023/09/18 00:35:47;;;;;;;73.35;66.25;;;16.40;99.90;;;;;;6149557;23;20033;-79
2023/09/18 00:38:15;;;;;;;71.75;64.55;;;16.40;99.90;;;;;;6149006;23;20446;-80
2023/09/18 00:40:43;;;;;;;73.70;66.68;;;16.30;99.90;;;;;;6148866;23;20096;-81
2023/09/18 00:43:11;;;;;;;72.35;65.38;;;16.30;99.90;;;;;;6159029;23;20072;-79
2023/09/18 00:45:42;;;;;;;72.18;65.18;;;16.20;99.90;;;;;;6161263;23;20088;-80
2023/09/18 00:48:10;;;;;;;74.75;67.68;;;16.30;99.90;;;;;;6152322;23;20120;-80
2023/09/18 00:50:39;;;;;;;76.43;68.53;;;16.30;99.90;;;;;;6148986;23;20052;-80
2023/09/18 00:53:09;;;;;;;72.32;65.75;;;16.30;99.90;;;;;;6155395;23;20037;-80
2023/09/18 00:55:38;;;;;;;72.28;65.20;;;16.30;99.90;;;;;;6148778;23;20029;-80
2023/09/18 00:58:07;;;;;;;73.13;66.22;;;16.20;99.90;;;;;;6160461;23;20025;-80
2023/09/18 01:00:34;;;;;;;72.45;65.47;;;16.30;99.90;;;;;;6174794;23;20041;-80
2023/09/18 01:03:03;;;;;;;74.03;67.05;;;16.20;99.90;;;;;;6173155;23;20021;-80
2023/09/18 01:05:33;;;;;;;72.75;65.90;;;16.30;99.90;;;;;;6155481;23;20481;-81
2023/09/18 01:08:02;;;;;;;73.88;66.90;;;16.20;99.90;;;;;;6156574;23;20484;-80
2023/09/18 01:10:41;;;;;;;70.05;63.47;;;16.30;99.90;;;;;;6163411;22;20025;-76
2023/09/18 01:13:15;;;;;;;67.95;61.25;;;16.20;99.90;;;;;;6159211;23;20032;-77
2023/09/18 01:15:48;;;;;;;66.07;59.65;;;16.20;99.90;;;;;;6174296;23;20025;-76
2023/09/18 01:18:16;;;;;;;66.05;59.85;;;16.30;99.90;;;;;;6147576;23;20080;-78
2023/09/18 01:20:45;;;;;;;65.75;59.38;;;16.30;99.90;;;;;;6148620;23;20030;-75
2023/09/18 01:23:14;;;;;;;63.80;57.60;;;16.20;99.90;;;;;;6172987;23;20349;-76
2023/09/18 01:25:42;;;;;;;61.90;56.03;;;16.30;99.90;;;;;;6149651;23;20081;-75
2023/09/18 01:28:10;;;;;;;61.00;55.20;;;16.30;99.90;;;;;;6149135;23;20017;-76
2023/09/18 01:30:38;;;;;;;61.35;55.47;;;16.30;99.90;;;;;;6159963;23;20453;-76
2023/09/18 01:33:05;;;;;;;60.33;54.55;;;16.30;99.90;;;;;;6172826;23;20040;-76
2023/09/18 01:35:35;;;;;;;61.83;55.90;;;16.20;99.90;;;;;;6163593;23;20034;-75
2023/09/18 01:38:06;;;;;;;62.63;56.55;;;16.20;99.90;;;;;;6167356;23;20089;-76
2023/09/18 01:40:35;;;;;;;65.10;58.70;;;16.20;99.90;;;;;;6174243;23;20088;-75
2023/09/18 01:43:03;;;;;;;64.30;58.10;;;16.10;99.90;;;;;;6147289;23;20013;-76
2023/09/18 01:45:30;;;;;;;66.30;60.03;;;16.00;99.90;;;;;;6159877;23;20072;-76
2023/09/18 01:47:58;;;;;;;67.30;60.50;;;16.00;99.90;;;;;;6147885;23;20025;-76
2023/09/18 01:50:25;;;;;;;67.25;60.30;;;16.00;99.90;;;;;;6172259;23;20115;-76
2023/09/18 01:52:52;;;;;;;65.43;58.97;;;16.00;99.90;;;;;;6155714;23;20036;-79
2023/09/18 01:55:20;;;;;;;68.43;61.50;;;16.00;99.90;;;;;;6147941;23;20059;-76
2023/09/18 01:57:48;;;;;;;67.47;60.80;;;16.00;99.90;;;;;;6161617;23;20010;-76
2023/09/18 02:00:18;;;;;;;66.20;59.95;;;16.00;99.90;;;;;;6174307;23;20105;-76
2023/09/18 02:02:45;;;;;;;69.88;63.35;;;15.90;99.90;;;;;;6153758;23;20026;-77
2023/09/18 02:05:13;;;;;;;67.38;61.05;;;15.80;99.90;;;;;;6174757;23;20087;-76
2023/09/18 02:07:40;;;;;;;70.00;63.25;;;15.70;99.90;;;;;;6158109;23;20400;-79
2023/09/18 02:10:09;;;;;;;71.28;64.28;;;15.80;99.90;;;;;;6174451;23;20030;-76
2023/09/18 02:12:36;;;;;;;68.93;62.17;;;15.70;99.90;;;;;;6149504;23;20017;-75
2023/09/18 02:15:07;;;;;;;64.18;57.80;;;15.60;99.90;;;;;;6149668;23;20022;-78
2023/09/18 02:17:34;;;;;;;65.00;58.28;;;15.70;99.90;;;;;;6174253;23;20075;-76
2023/09/18 02:20:04;;;;;;;64.88;58.60;;;15.80;99.90;;;;;;6148966;23;20064;-75
2023/09/18 02:22:33;;;;;;;65.03;58.75;;;15.70;99.90;;;;;;6163526;23;20021;-76
2023/09/18 02:25:00;;;;;;;67.43;60.85;;;15.70;99.90;;;;;;6177739;23;20019;-77
2023/09/18 02:27:28;;;;;;;71.47;64.47;;;15.70;99.90;;;;;;6179206;23;20005;-77
2023/09/18 02:29:56;;;;;;;68.63;61.70;;;15.60;99.90;;;;;;6176340;23;20010;-76
2023/09/18 02:32:25;;;;;;;63.05;56.80;;;15.70;99.90;;;;;;6188490;22;20028;-76
2023/09/18 02:34:52;;;;;;;64.00;57.75;;;15.70;99.90;;;;;;6151592;23;20076;-76
2023/09/18 02:37:26;;;;;;;62.67;56.50;;;15.70;99.90;;;;;;6178095;23;20018;-76
2023/09/18 02:39:53;;;;;;;65.70;59.22;;;15.60;99.90;;;;;;6176334;23;20021;-76
2023/09/18 02:42:21;;;;;;;61.53;55.55;;;15.60;99.90;;;;;;6174203;23;20025;-76
2023/09/18 02:44:49;;;;;;;63.03;56.72;;;15.60;99.90;;;;;;6174506;23;20076;-76
2023/09/18 02:47:17;;;;;;;64.85;58.50;;;15.60;99.90;;;;;;6149206;23;20021;-77
2023/09/18 02:49:46;;;;;;;65.53;59.17;;;15.60;99.90;;;;;;6174619;23;20029;-76
2023/09/18 02:52:14;;;;;;;65.18;58.85;;;15.50;99.90;;;;;;6150108;23;20045;-76
2023/09/18 02:54:42;;;;;;;63.80;57.25;;;15.50;99.90;;;;;;6193059;23;20498;-78
2023/09/18 02:57:10;;;;;;;61.90;55.88;;;15.50;99.90;;;;;;6180413;23;20420;-76
2023/09/18 02:59:38;;;;;;;61.17;54.85;;;15.50;99.90;;;;;;6188355;23;20028;-76
2023/09/18 03:02:06;;;;;;;64.00;57.70;;;15.50;99.90;;;;;;6155028;23;20289;-77
2023/09/18 03:04:33;;;;;;;63.80;57.42;;;15.50;99.90;;;;;;6159827;23;20100;-78
2023/09/18 03:07:05;;;;;;;66.55;60.05;;;15.50;99.90;;;;;;6152905;23;20056;-78
2023/09/18 03:09:35;;;;;;;65.57;59.10;;;15.60;99.90;;;;;;6150065;23;20035;-76
2023/09/18 03:12:03;;;;;;;61.78;55.78;;;15.60;99.90;;;;;;6148296;23;20768;-76
2023/09/18 03:14:30;;;;;;;61.95;55.55;;;15.50;99.90;;;;;;6148616;23;20568;-77
2023/09/18 03:16:58;;;;;;;61.40;55.58;;;15.50;99.90;;;;;;6174341;23;20053;-76
2023/09/18 03:19:26;;;;;;;61.88;55.90;;;15.40;99.90;;;;;;6175578;23;20029;-78
2023/09/18 03:21:55;;;;;;;72.25;65.15;;;15.40;99.90;;;;;;6175510;23;20160;-77
2023/09/18 03:24:24;;;;;;;71.15;64.00;;;15.40;99.90;;;;;;6151234;23;20029;-77
2023/09/18 03:26:51;;;;;;;65.97;59.17;;;15.40;99.90;;;;;;6155365;23;20021;-77
2023/09/18 03:29:19;;;;;;;75.32;67.78;;;15.50;99.90;;;;;;6189948;23;20043;-77
2023/09/18 03:31:47;;;;;;;70.05;63.15;;;15.50;99.90;;;;;;6163296;23;20091;-76
2023/09/18 03:34:14;;;;;;;62.47;56.30;;;15.40;99.90;;;;;;6173466;23;20455;-76
2023/09/18 03:36:42;;;;;;;62.90;56.70;;;15.30;99.90;;;;;;6175359;23;20041;-76
2023/09/18 03:39:09;;;;;;;65.70;59.10;;;15.30;99.90;;;;;;6174410;23;20021;-76
2023/09/18 03:41:39;;;;;;;64.68;58.55;;;15.30;99.90;;;;;;6173752;23;20074;-76
2023/09/18 03:44:07;;;;;;;66.53;60.00;;;15.10;99.90;;;;;;6148333;23;20040;-76
2023/09/18 03:46:34;;;;;;;64.68;58.10;;;15.10;99.90;;;;;;6173410;23;20029;-77
2023/09/18 03:49:02;;;;;;;65.38;58.88;;;14.90;99.90;;;;;;6174733;23;20024;-76
2023/09/18 03:51:31;;;;;;;63.95;57.75;;;14.90;99.90;;;;;;6149037;23;20025;-77
2023/09/18 03:53:59;;;;;;;59.97;54.05;;;14.90;99.90;;;;;;6148236;23;20382;-76
2023/09/18 03:56:26;;;;;;;61.08;55.10;;;14.90;99.90;;;;;;6172995;23;20137;-75
2023/09/18 03:58:57;;;;;;;59.05;53.15;;;15.00;99.90;;;;;;6149266;23;20076;-76
2023/09/18 04:01:25;;;;;;;57.33;51.63;;;15.00;99.90;;;;;;6152289;23;20029;-75
2023/09/18 04:03:53;;;;;;;59.50;53.60;;;15.00;99.90;;;;;;6149167;23;20470;-76
2023/09/18 04:06:24;;;;;;;62.47;56.30;;;15.10;99.90;;;;;;6149747;23;20026;-77
2023/09/18 04:08:51;;;;;;;64.88;58.38;;;15.00;99.90;;;;;;6175356;23;20377;-77
2023/09/18 04:11:26;;;;;;;62.60;56.33;;;15.00;99.90;;;;;;6148881;23;20017;-76
2023/09/18 04:13:55;;;;;;;61.92;55.47;;;15.00;99.90;;;;;;6173405;23;20037;-78
2023/09/18 04:16:22;;;;;;;63.08;56.85;;;14.90;99.90;;;;;;6173614;23;20033;-76
2023/09/18 04:18:51;;;;;;;63.42;56.95;;;15.00;99.90;;;;;;6149024;23;20496;-78
2023/09/18 04:21:19;;;;;;;60.20;54.47;;;15.00;99.90;;;;;;6173563;23;20025;-76
2023/09/18 04:23:46;;;;;;;61.03;55.28;;;15.10;99.90;;;;;;6172693;23;20550;-76
2023/09/18 04:26:15;;;;;;;63.33;56.70;;;15.10;99.90;;;;;;6148346;23;20099;-77
2023/09/18 04:28:43;;;;;;;65.00;58.42;;;15.10;99.90;;;;;;6148350;23;20080;-76
2023/09/18 04:31:13;;;;;;;63.70;56.95;;;15.00;99.90;;;;;;6172749;23;20014;-78
2023/09/18 04:33:41;;;;;;;64.32;57.92;;;15.10;99.90;;;;;;6149437;23;20076;-76
2023/09/18 04:36:09;;;;;;;63.35;57.25;;;15.10;99.90;;;;;;6176530;23;20032;-75
2023/09/18 04:38:37;;;;;;;62.78;56.60;;;15.20;99.90;;;;;;6147989;23;20457;-77
2023/09/18 04:41:06;;;;;;;64.35;57.97;;;15.20;99.90;;;;;;6172989;23;20026;-76
2023/09/18 04:43:35;;;;;;;65.55;59.05;;;15.20;99.90;;;;;;6172215;23;20022;-77
2023/09/18 04:46:04;;;;;;;61.03;54.78;;;15.20;99.90;;;;;;6172478;23;20024;-77
2023/09/18 04:48:36;;;;;;;59.67;53.72;;;15.20;99.90;;;;;;6152856;23;20034;-77
2023/09/18 04:51:05;;;;;;;60.30;54.40;;;15.20;99.90;;;;;;6153480;23;20222;-76
2023/09/18 04:53:33;;;;;;;60.45;54.17;;;15.20;99.90;;;;;;6175420;23;20021;-76
2023/09/18 04:56:00;;;;;;;59.80;53.75;;;15.20;99.90;;;;;;6171990;23;20064;-78
2023/09/18 04:58:28;;;;;;;58.05;51.95;;;15.20;99.90;;;;;;6148829;23;20084;-77
2023/09/18 05:00:56;;;;;;;58.22;52.50;;;15.20;99.90;;;;;;6163103;23;20060;-77
2023/09/18 05:03:25;;;;;;;59.83;53.17;;;15.30;99.90;;;;;;6174933;23;20021;-76
2023/09/18 05:05:54;;;;;;;56.40;50.67;;;15.30;99.90;;;;;;6198931;22;20013;-77
2023/09/18 05:08:22;;;;;;;55.97;50.38;;;15.30;99.90;;;;;;6176637;22;20838;-76
2023/09/18 05:10:50;;;;;;;53.58;48.33;;;15.40;99.90;;;;;;6174446;23;20104;-76
2023/09/18 05:13:17;;;;;;;57.38;51.72;;;15.40;99.90;;;;;;6175731;23;20017;-75
2023/09/18 05:15:45;;;;;;;57.60;51.92;;;15.50;99.90;;;;;;6173991;23;20104;-77
2023/09/18 05:18:13;;;;;;;58.80;52.58;;;15.60;99.90;;;;;;6147394;23;20446;-77
2023/09/18 05:20:41;;;;;;;57.47;51.65;;;15.60;99.90;;;;;;6195086;23;20124;-76
2023/09/18 05:23:10;;;;;;;58.28;52.15;;;15.60;99.90;;;;;;6163055;23;20045;-77
2023/09/18 05:25:38;;;;;;;55.72;50.25;;;15.70;99.90;;;;;;6177798;23;20026;-75
2023/09/18 05:28:06;;;;;;;56.78;51.10;;;15.80;99.90;;;;;;6173444;23;20474;-78
2023/09/18 05:30:38;;;;;;;53.85;48.47;;;16.00;99.90;;;;;;6175045;23;20018;-75
2023/09/18 05:33:08;;;;;;;56.30;50.78;;;16.20;99.90;;;;;;6173437;23;20026;-75
2023/09/18 05:35:37;;;;;;;55.25;49.90;;;16.30;99.90;;;;;;6174141;23;20079;-78
2023/09/18 05:38:06;;;;;;;53.88;48.28;;;16.50;99.90;;;;;;6173038;23;20108;-78
2023/09/18 05:40:35;;;;;;;52.40;47.30;;;16.50;99.90;;;;;;6173115;23;20034;-77
2023/09/18 05:43:03;;;;;;;52.83;47.42;;;16.60;99.90;;;;;;6172928;23;20074;-77
2023/09/18 05:45:31;;;;;;;51.92;46.80;;;16.70;99.90;;;;;;6148456;23;20017;-75
2023/09/18 05:48:03;;;;;;;49.03;44.20;;;17.00;99.90;;;;;;6173847;23;20088;-79
2023/09/18 05:50:32;;;;;;;46.40;41.92;;;17.30;99.90;;;;;;6172279;23;20104;-76
2023/09/18 05:53:03;;;;;;;48.75;43.60;;;17.60;99.90;;;;;;6168031;23;20025;-75
2023/09/18 05:55:31;;;;;;;45.10;40.53;;;17.90;99.90;;;;;;6152835;23;20529;-76
2023/09/18 05:58:01;;;;;;;44.38;39.78;;;18.20;99.90;;;;;;6156437;23;20104;-76
2023/09/18 06:00:30;;;;;;;43.38;39.30;;;18.40;99.90;;;;;;6159106;23;20064;-75
2023/09/18 06:02:58;;;;;;;40.83;36.60;;;18.60;99.90;;;;;;6190015;23;20113;-77
2023/09/18 06:05:30;;;;;;;40.80;36.90;;;18.60;99.90;;;;;;6166747;23;20077;-75
2023/09/18 06:07:59;;;;;;;42.40;38.00;;;18.70;99.90;;;;;;6154340;23;20025;-77
2023/09/18 06:10:27;;;;;;;40.40;36.10;;;19.00;99.90;;;;;;6138860;23;20481;-77
2023/09/18 06:13:05;;;;;;;46.72;41.78;;;19.10;99.90;;;;;;6149803;23;20457;-76
2023/09/18 06:15:38;;;;;;;41.17;36.75;;;19.50;99.90;;;;;;6148735;23;20081;-77
2023/09/18 06:18:10;;;;;;;40.42;36.08;;;19.70;99.90;;;;;;6149777;23;20045;-76
2023/09/18 06:20:45;;;;;;;40.55;36.17;;;19.80;99.90;;;;;;6152392;23;20105;-76
2023/09/18 06:23:13;;;;;;;41.67;37.40;;;19.80;99.90;;;;;;6172258;23;20025;-77
2023/09/18 06:25:41;;;;;;;40.45;36.30;;;19.90;99.90;;;;;;6172400;23;20080;-78
2023/09/18 06:28:10;;;;;;;40.20;36.20;;;20.00;99.90;;;;;;6146858;23;20021;-77
2023/09/18 06:30:38;;;;;;;37.60;33.92;;;20.10;99.90;;;;;;6148127;23;20494;-76
2023/09/18 06:33:05;;;;;;;51.28;37.22;;;20.20;99.90;;;;;;6147774;23;20025;-76
2023/09/18 06:35:33;;;;;;;38.25;34.38;;;20.20;99.90;;;;;;6155232;23;20034;-76
2023/09/18 06:38:05;;;;;;;40.40;36.25;;;20.30;99.90;;;;;;6174539;23;20331;-78
2023/09/18 06:40:33;;;;;;;43.22;38.65;;;20.40;99.90;;;;;;6178515;23;20462;-79
2023/09/18 06:43:01;;;;;;;37.85;34.05;;;20.50;99.90;;;;;;6152954;23;20017;-76
2023/09/18 06:45:30;;;;;;;36.88;33.08;;;20.50;99.90;;;;;;6150772;23;20485;-76
2023/09/18 06:48:01;;;;;;;39.55;34.70;;;20.60;99.90;;;;;;6175162;23;20108;-76
2023/09/18 06:50:28;;;;;;;37.65;33.65;;;20.70;99.90;;;;;;6158714;23;20029;-77
2023/09/18 06:53:01;;;;;;;37.50;33.70;;;20.90;99.90;;;;;;6173578;23;20690;-75
2023/09/18 06:55:31;;;;;;;41.38;35.28;;;21.10;99.90;;;;;;6178827;23;20093;-78
2023/09/18 06:58:00;;;;;;;51.00;35.03;;;21.40;99.90;;;;;;6152734;23;20037;-79
2023/09/18 07:00:30;;;;;;;35.35;31.60;;;21.40;99.90;;;;;;6151058;23;20029;-77
2023/09/18 07:02:57;;;;;;;65.57;37.70;;;21.60;99.90;;;;;;6163506;23;20033;-76
2023/09/18 07:05:25;;;;;;;124.93;52.70;;;21.80;99.90;;;;;;6176219;23;20033;-77
2023/09/18 07:07:57;;;;;;;34.78;30.65;;;22.00;99.90;;;;;;6176133;23;20100;-76
2023/09/18 07:10:26;;;;;;;44.08;31.15;;;22.10;99.90;;;;;;6167753;23;20048;-76
2023/09/18 07:12:58;;;;;;;31.85;28.45;;;22.30;99.90;;;;;;6215853;22;20034;-78
2023/09/18 07:15:30;;;;;;;30.33;27.20;;;22.50;99.90;;;;;;6240668;23;20321;-77
2023/09/18 07:18:06;;;;;;;29.92;25.95;;;22.70;99.90;;;;;;6294742;22;20023;-78
2023/09/18 07:20:54;;;;;;;26.17;22.83;;;22.90;99.90;;;;;;6296819;22;20026;-78
2023/09/18 07:24:20;;;;;;;28.75;23.33;;;23.00;99.90;;;;;;6269800;22;20097;-77
2023/09/18 07:30:32;;;;;;;23.60;21.15;;;23.50;99.90;;;;;;6250471;22;20080;-76
2023/09/18 07:33:52;;;;;;;42.20;37.95;;;23.70;99.90;;;;;;6285776;22;20070;-80
2023/09/18 07:50:36;;;;;;;;;;;;;;;;;;;;;
2023/09/18 11:56:32;;;;;;;11.45;7.97;;;29.60;99.90;;;;;;4716242;29;20048;-81
2023/09/18 22:37:30;;;;;;;20.85;15.18;;;21.60;99.90;;;;;;4843288;29;20065;-78
